sensor_id;sensor_type;location;lat;lon;timestamp;temperature;humidity
45323;DHT22;31382;50.200;8.674;2022-07-11T00:03:33;17.60;99.90
45323;DHT22;31382;50.200;8.674;2022-07-11T00:08:44;17.60;99.90
45323;DHT22;31382;50.200;8.674;2022-07-11T00:14:48;17.60;99.90
45323;DHT22;31382;50.200;8.674;2022-07-11T00:20:07;17.60;99.90
45323;DHT22;31382;50.200;8.674;2022-07-11T00:25:31;17.60;99.90
45323;DHT22;31382;50.200;8.674;2022-07-11T00:31:08;17.60;99.90
45323;DHT22;31382;50.200;8.674;2022-07-11T00:36:29;17.60;99.90
45323;DHT22;31382;50.200;8.674;2022-07-11T00:41:39;17.70;99.90
45323;DHT22;31382;50.200;8.674;2022-07-11T00:47:07;17.70;99.90
45323;DHT22;31382;50.200;8.674;2022-07-11T00:52:16;17.70;99.90
45323;DHT22;31382;50.200;8.674;2022-07-11T00:57:22;17.70;99.90
45323;DHT22;31382;50.200;8.674;2022-07-11T01:02:27;17.70;99.90
45323;DHT22;31382;50.200;8.674;2022-07-11T01:07:52;17.80;99.90
45323;DHT22;31382;50.200;8.674;2022-07-11T01:13:09;17.80;99.90
45323;DHT22;31382;50.200;8.674;2022-07-11T01:18:17;17.90;99.90
45323;DHT22;31382;50.200;8.674;2022-07-11T01:23:28;17.80;99.90
45323;DHT22;31382;50.200;8.674;2022-07-11T01:28:30;17.90;99.90
45323;DHT22;31382;50.200;8.674;2022-07-11T01:33:32;17.80;99.90
45323;DHT22;31382;50.200;8.674;2022-07-11T01:38:35;17.90;99.90
45323;DHT22;31382;50.200;8.674;2022-07-11T01:43:38;17.80;99.90
45323;DHT22;31382;50.200;8.674;2022-07-11T01:48:41;17.80;99.90
45323;DHT22;31382;50.200;8.674;2022-07-11T01:53:50;17.90;99.90
45323;DHT22;31382;50.200;8.674;2022-07-11T01:58:52;17.80;99.90
45323;DHT22;31382;50.200;8.674;2022-07-11T02:03:54;17.90;99.90
45323;DHT22;31382;50.200;8.674;2022-07-11T02:08:57;17.90;99.90
45323;DHT22;31382;50.200;8.674;2022-07-11T02:13:59;17.90;99.90
45323;DHT22;31382;50.200;8.674;2022-07-11T02:19:02;17.80;99.90
45323;DHT22;31382;50.200;8.674;2022-07-11T02:24:09;17.80;99.90
45323;DHT22;31382;50.200;8.674;2022-07-11T02:29:13;17.70;99.90
45323;DHT22;31382;50.200;8.674;2022-07-11T02:34:19;17.70;99.90
45323;DHT22;31382;50.200;8.674;2022-07-11T02:39:22;17.60;99.90
45323;DHT22;31382;50.200;8.674;2022-07-11T02:44:45;17.60;99.90
45323;DHT22;31382;50.200;8.674;2022-07-11T02:49:48;17.60;99.90
45323;DHT22;31382;50.200;8.674;2022-07-11T02:54:50;17.70;99.90
45323;DHT22;31382;50.200;8.674;2022-07-11T02:59:53;17.70;99.90
45323;DHT22;31382;50.200;8.674;2022-07-11T03:04:57;17.60;99.90
45323;DHT22;31382;50.200;8.674;2022-07-11T03:10:04;17.70;99.90
45323;DHT22;31382;50.200;8.674;2022-07-11T03:15:31;17.70;99.90
45323;DHT22;31382;50.200;8.674;2022-07-11T03:21:01;17.60;99.90
45323;DHT22;31382;50.200;8.674;2022-07-11T03:26:32;17.70;99.90
45323;DHT22;31382;50.200;8.674;2022-07-11T03:32:14;17.60;99.90
45323;DHT22;31382;50.200;8.674;2022-07-11T03:37:43;17.70;99.90
45323;DHT22;31382;50.200;8.674;2022-07-11T03:43:26;17.70;99.90
45323;DHT22;31382;50.200;8.674;2022-07-11T03:48:52;17.60;99.90
45323;DHT22;31382;50.200;8.674;2022-07-11T03:53:56;17.50;99.90
45323;DHT22;31382;50.200;8.674;2022-07-11T03:59:11;17.70;99.90
45323;DHT22;31382;50.200;8.674;2022-07-11T04:04:46;17.70;99.90
45323;DHT22;31382;50.200;8.674;2022-07-11T04:10:17;17.70;99.90
45323;DHT22;31382;50.200;8.674;2022-07-11T04:15:39;17.80;99.90
45323;DHT22;31382;50.200;8.674;2022-07-11T04:20:43;17.80;99.90
45323;DHT22;31382;50.200;8.674;2022-07-11T04:25:46;17.90;99.90
45323;DHT22;31382;50.200;8.674;2022-07-11T04:30:48;18.00;99.90
45323;DHT22;31382;50.200;8.674;2022-07-11T04:35:50;18.00;99.90
45323;DHT22;31382;50.200;8.674;2022-07-11T04:40:51;18.00;99.90
45323;DHT22;31382;50.200;8.674;2022-07-11T04:45:53;18.20;99.90
45323;DHT22;31382;50.200;8.674;2022-07-11T04:51:00;18.00;99.90
45323;DHT22;31382;50.200;8.674;2022-07-11T04:56:03;18.00;99.90
45323;DHT22;31382;50.200;8.674;2022-07-11T05:01:05;18.00;99.90
45323;DHT22;31382;50.200;8.674;2022-07-11T05:06:08;18.20;99.90
45323;DHT22;31382;50.200;8.674;2022-07-11T05:11:12;18.20;99.90
45323;DHT22;31382;50.200;8.674;2022-07-11T05:16:14;18.30;99.90
45323;DHT22;31382;50.200;8.674;2022-07-11T05:21:41;18.30;99.90
45323;DHT22;31382;50.200;8.674;2022-07-11T05:27:08;18.30;99.90
45323;DHT22;31382;50.200;8.674;2022-07-11T05:33:13;18.30;99.90
45323;DHT22;31382;50.200;8.674;2022-07-11T05:44:33;18.60;99.90
45323;DHT22;31382;50.200;8.674;2022-07-11T05:49:34;18.70;99.90
45323;DHT22;31382;50.200;8.674;2022-07-11T05:54:36;18.60;99.90
45323;DHT22;31382;50.200;8.674;2022-07-11T05:59:38;18.70;99.90
45323;DHT22;31382;50.200;8.674;2022-07-11T06:04:40;18.70;99.90
45323;DHT22;31382;50.200;8.674;2022-07-11T06:09:44;18.80;99.90
45323;DHT22;31382;50.200;8.674;2022-07-11T06:14:45;18.90;99.90
45323;DHT22;31382;50.200;8.674;2022-07-11T06:19:47;19.00;99.90
45323;DHT22;31382;50.200;8.674;2022-07-11T06:24:50;19.00;99.90
45323;DHT22;31382;50.200;8.674;2022-07-11T06:29:52;19.00;99.90
45323;DHT22;31382;50.200;8.674;2022-07-11T06:34:53;19.10;99.90
45323;DHT22;31382;50.200;8.674;2022-07-11T06:39:55;19.20;99.90
45323;DHT22;31382;50.200;8.674;2022-07-11T06:44:57;19.40;99.90
45323;DHT22;31382;50.200;8.674;2022-07-11T06:49:58;19.70;99.90
45323;DHT22;31382;50.200;8.674;2022-07-11T06:55:01;19.90;99.90
45323;DHT22;31382;50.200;8.674;2022-07-11T07:00:04;20.00;99.90
45323;DHT22;31382;50.200;8.674;2022-07-11T07:05:07;20.30;99.90
45323;DHT22;31382;50.200;8.674;2022-07-11T07:10:14;20.40;99.90
45323;DHT22;31382;50.200;8.674;2022-07-11T07:15:15;20.30;99.90
45323;DHT22;31382;50.200;8.674;2022-07-11T07:20:17;20.40;99.90
45323;DHT22;31382;50.200;8.674;2022-07-11T07:25:19;20.30;99.90
45323;DHT22;31382;50.200;8.674;2022-07-11T07:30:20;20.20;99.90
45323;DHT22;31382;50.200;8.674;2022-07-11T07:35:22;20.30;99.90
45323;DHT22;31382;50.200;8.674;2022-07-11T07:40:24;20.30;99.90
45323;DHT22;31382;50.200;8.674;2022-07-11T07:45:25;20.20;99.90
45323;DHT22;31382;50.200;8.674;2022-07-11T07:50:27;20.10;99.90
45323;DHT22;31382;50.200;8.674;2022-07-11T07:55:30;20.20;99.90
45323;DHT22;31382;50.200;8.674;2022-07-11T08:00:31;20.30;99.90
45323;DHT22;31382;50.200;8.674;2022-07-11T08:05:52;20.40;99.90
45323;DHT22;31382;50.200;8.674;2022-07-11T08:10:53;20.50;99.90
45323;DHT22;31382;50.200;8.674;2022-07-11T08:16:15;20.50;99.90
45323;DHT22;31382;50.200;8.674;2022-07-11T08:21:17;20.70;99.90
45323;DHT22;31382;50.200;8.674;2022-07-11T08:26:19;20.80;99.90
45323;DHT22;31382;50.200;8.674;2022-07-11T08:31:20;20.90;99.90
45323;DHT22;31382;50.200;8.674;2022-07-11T08:36:22;21.00;99.90
45323;DHT22;31382;50.200;8.674;2022-07-11T08:41:24;21.00;99.90
45323;DHT22;31382;50.200;8.674;2022-07-11T08:46:26;21.20;99.90
45323;DHT22;31382;50.200;8.674;2022-07-11T08:51:29;21.10;99.90
45323;DHT22;31382;50.200;8.674;2022-07-11T08:56:31;21.20;99.90
45323;DHT22;31382;50.200;8.674;2022-07-11T09:01:38;21.20;99.90
45323;DHT22;31382;50.200;8.674;2022-07-11T09:06:42;21.40;99.90
45323;DHT22;31382;50.200;8.674;2022-07-11T09:11:55;21.40;99.90
45323;DHT22;31382;50.200;8.674;2022-07-11T09:16:59;21.40;99.90
45323;DHT22;31382;50.200;8.674;2022-07-11T09:22:04;21.30;99.90
45323;DHT22;31382;50.200;8.674;2022-07-11T09:27:24;21.30;99.90
45323;DHT22;31382;50.200;8.674;2022-07-11T09:32:26;21.50;99.90
45323;DHT22;31382;50.200;8.674;2022-07-11T09:37:41;21.60;99.90
45323;DHT22;31382;50.200;8.674;2022-07-11T09:42:56;21.60;99.90
45323;DHT22;31382;50.200;8.674;2022-07-11T09:48:10;22.00;99.90
45323;DHT22;31382;50.200;8.674;2022-07-11T09:53:13;22.20;99.90
45323;DHT22;31382;50.200;8.674;2022-07-11T09:58:19;22.40;99.90
45323;DHT22;31382;50.200;8.674;2022-07-11T10:03:24;22.70;99.90
45323;DHT22;31382;50.200;8.674;2022-07-11T10:08:47;23.00;99.90
45323;DHT22;31382;50.200;8.674;2022-07-11T10:13:49;22.90;99.90
45323;DHT22;31382;50.200;8.674;2022-07-11T10:24:51;23.10;99.90
45323;DHT22;31382;50.200;8.674;2022-07-11T10:29:55;23.30;99.90
45323;DHT22;31382;50.200;8.674;2022-07-11T10:35:07;23.60;99.60
45323;DHT22;31382;50.200;8.674;2022-07-11T10:40:09;23.30;99.70
45323;DHT22;31382;50.200;8.674;2022-07-11T10:45:11;23.30;99.40
45323;DHT22;31382;50.200;8.674;2022-07-11T10:50:34;23.40;99.70
45323;DHT22;31382;50.200;8.674;2022-07-11T10:56:02;23.30;98.80
45323;DHT22;31382;50.200;8.674;2022-07-11T11:01:09;23.20;99.00
45323;DHT22;31382;50.200;8.674;2022-07-11T11:06:12;23.10;99.40
45323;DHT22;31382;50.200;8.674;2022-07-11T11:16:28;23.40;98.10
45323;DHT22;31382;50.200;8.674;2022-07-11T11:21:30;23.50;98.30
45323;DHT22;31382;50.200;8.674;2022-07-11T11:31:53;23.40;98.70
45323;DHT22;31382;50.200;8.674;2022-07-11T11:36:58;23.80;98.30
45323;DHT22;31382;50.200;8.674;2022-07-11T11:47:06;24.20;96.90
45323;DHT22;31382;50.200;8.674;2022-07-11T11:52:15;24.20;96.90
45323;DHT22;31382;50.200;8.674;2022-07-11T11:57:17;24.30;96.70
45323;DHT22;31382;50.200;8.674;2022-07-11T12:02:23;24.50;96.30
45323;DHT22;31382;50.200;8.674;2022-07-11T12:07:28;24.80;96.10
45323;DHT22;31382;50.200;8.674;2022-07-11T12:12:31;24.90;96.40
45323;DHT22;31382;50.200;8.674;2022-07-11T12:17:46;24.60;95.50
45323;DHT22;31382;50.200;8.674;2022-07-11T12:22:49;24.60;95.80
45323;DHT22;31382;50.200;8.674;2022-07-11T12:27:55;24.40;95.80
45323;DHT22;31382;50.200;8.674;2022-07-11T12:33:03;24.50;95.90
45323;DHT22;31382;50.200;8.674;2022-07-11T12:38:05;24.50;95.90
45323;DHT22;31382;50.200;8.674;2022-07-11T12:43:06;24.70;95.80
45323;DHT22;31382;50.200;8.674;2022-07-11T12:48:38;25.20;95.30
45323;DHT22;31382;50.200;8.674;2022-07-11T12:53:40;24.90;95.00
45323;DHT22;31382;50.200;8.674;2022-07-11T12:58:42;24.80;95.20
45323;DHT22;31382;50.200;8.674;2022-07-11T13:03:43;24.90;95.30
45323;DHT22;31382;50.200;8.674;2022-07-11T13:08:45;25.50;94.60
45323;DHT22;31382;50.200;8.674;2022-07-11T13:13:48;25.70;93.80
45323;DHT22;31382;50.200;8.674;2022-07-11T13:18:50;25.80;93.10
45323;DHT22;31382;50.200;8.674;2022-07-11T13:23:52;25.80;92.80
45323;DHT22;31382;50.200;8.674;2022-07-11T13:28:54;25.80;91.80
45323;DHT22;31382;50.200;8.674;2022-07-11T13:33:56;26.10;92.20
45323;DHT22;31382;50.200;8.674;2022-07-11T13:38:58;25.70;92.40
45323;DHT22;31382;50.200;8.674;2022-07-11T13:43:59;26.30;91.90
45323;DHT22;31382;50.200;8.674;2022-07-11T13:49:01;26.50;91.60
45323;DHT22;31382;50.200;8.674;2022-07-11T13:54:03;26.80;91.30
45323;DHT22;31382;50.200;8.674;2022-07-11T13:59:04;27.10;91.20
45323;DHT22;31382;50.200;8.674;2022-07-11T14:04:06;26.90;89.90
45323;DHT22;31382;50.200;8.674;2022-07-11T14:09:08;26.90;90.40
45323;DHT22;31382;50.200;8.674;2022-07-11T14:14:10;27.30;89.10
45323;DHT22;31382;50.200;8.674;2022-07-11T14:19:11;27.10;89.30
45323;DHT22;31382;50.200;8.674;2022-07-11T14:24:13;27.20;89.00
45323;DHT22;31382;50.200;8.674;2022-07-11T14:29:15;26.90;89.40
45323;DHT22;31382;50.200;8.674;2022-07-11T14:34:17;27.00;89.90
45323;DHT22;31382;50.200;8.674;2022-07-11T14:39:19;27.30;89.90
45323;DHT22;31382;50.200;8.674;2022-07-11T14:44:21;27.30;86.10
45323;DHT22;31382;50.200;8.674;2022-07-11T14:49:23;28.20;87.70
45323;DHT22;31382;50.200;8.674;2022-07-11T14:54:25;28.70;85.30
45323;DHT22;31382;50.200;8.674;2022-07-11T14:59:27;29.50;83.20
45323;DHT22;31382;50.200;8.674;2022-07-11T15:04:28;29.50;81.30
45323;DHT22;31382;50.200;8.674;2022-07-11T15:09:30;29.50;80.20
45323;DHT22;31382;50.200;8.674;2022-07-11T15:14:51;29.90;78.60
45323;DHT22;31382;50.200;8.674;2022-07-11T15:19:53;29.50;78.60
45323;DHT22;31382;50.200;8.674;2022-07-11T15:24:55;28.70;80.40
45323;DHT22;31382;50.200;8.674;2022-07-11T15:29:57;28.60;79.70
45323;DHT22;31382;50.200;8.674;2022-07-11T15:34:59;28.90;79.80
45323;DHT22;31382;50.200;8.674;2022-07-11T15:40:00;28.90;79.60
45323;DHT22;31382;50.200;8.674;2022-07-11T15:45:07;28.70;79.30
45323;DHT22;31382;50.200;8.674;2022-07-11T15:50:10;28.00;80.20
45323;DHT22;31382;50.200;8.674;2022-07-11T15:55:12;28.20;80.90
45323;DHT22;31382;50.200;8.674;2022-07-11T16:00:14;28.30;80.10
45323;DHT22;31382;50.200;8.674;2022-07-11T16:05:16;28.90;79.70
45323;DHT22;31382;50.200;8.674;2022-07-11T16:10:17;28.70;79.90
45323;DHT22;31382;50.200;8.674;2022-07-11T16:15:19;27.90;80.60
45323;DHT22;31382;50.200;8.674;2022-07-11T16:20:21;27.20;81.40
45323;DHT22;31382;50.200;8.674;2022-07-11T16:25:23;26.80;83.40
45323;DHT22;31382;50.200;8.674;2022-07-11T16:30:25;26.20;85.30
45323;DHT22;31382;50.200;8.674;2022-07-11T16:35:37;26.00;86.40
45323;DHT22;31382;50.200;8.674;2022-07-11T16:40:40;25.90;87.00
45323;DHT22;31382;50.200;8.674;2022-07-11T16:46:00;25.50;87.70
45323;DHT22;31382;50.200;8.674;2022-07-11T16:51:03;25.60;88.90
45323;DHT22;31382;50.200;8.674;2022-07-11T16:56:06;25.70;88.70
45323;DHT22;31382;50.200;8.674;2022-07-11T17:01:07;25.60;88.70
45323;DHT22;31382;50.200;8.674;2022-07-11T17:06:10;25.90;88.50
45323;DHT22;31382;50.200;8.674;2022-07-11T17:11:14;26.70;85.60
45323;DHT22;31382;50.200;8.674;2022-07-11T17:16:16;27.00;84.00
45323;DHT22;31382;50.200;8.674;2022-07-11T17:21:18;26.40;84.60
45323;DHT22;31382;50.200;8.674;2022-07-11T17:26:20;26.00;85.30
45323;DHT22;31382;50.200;8.674;2022-07-11T17:31:22;26.00;86.00
45323;DHT22;31382;50.200;8.674;2022-07-11T17:36:26;25.60;86.80
45323;DHT22;31382;50.200;8.674;2022-07-11T17:41:28;25.30;87.80
45323;DHT22;31382;50.200;8.674;2022-07-11T17:46:30;25.20;88.10
45323;DHT22;31382;50.200;8.674;2022-07-11T17:51:32;24.70;88.10
45323;DHT22;31382;50.200;8.674;2022-07-11T17:56:34;24.40;88.90
45323;DHT22;31382;50.200;8.674;2022-07-11T18:01:35;24.30;89.30
45323;DHT22;31382;50.200;8.674;2022-07-11T18:06:37;24.20;90.90
45323;DHT22;31382;50.200;8.674;2022-07-11T18:11:39;24.00;91.30
45323;DHT22;31382;50.200;8.674;2022-07-11T18:16:40;23.80;91.80
45323;DHT22;31382;50.200;8.674;2022-07-11T18:21:42;23.60;92.30
45323;DHT22;31382;50.200;8.674;2022-07-11T18:26:44;23.50;92.70
45323;DHT22;31382;50.200;8.674;2022-07-11T18:31:46;23.30;93.10
45323;DHT22;31382;50.200;8.674;2022-07-11T18:36:47;23.20;93.30
45323;DHT22;31382;50.200;8.674;2022-07-11T18:41:50;23.00;93.90
45323;DHT22;31382;50.200;8.674;2022-07-11T18:46:52;23.00;94.10
45323;DHT22;31382;50.200;8.674;2022-07-11T18:51:54;22.90;94.40
45323;DHT22;31382;50.200;8.674;2022-07-11T18:56:56;22.80;94.90
45323;DHT22;31382;50.200;8.674;2022-07-11T19:01:58;22.70;95.30
45323;DHT22;31382;50.200;8.674;2022-07-11T19:06:59;22.70;95.80
45323;DHT22;31382;50.200;8.674;2022-07-11T19:12:01;22.60;96.10
45323;DHT22;31382;50.200;8.674;2022-07-11T19:17:03;22.40;96.40
45323;DHT22;31382;50.200;8.674;2022-07-11T19:22:05;22.30;97.00
45323;DHT22;31382;50.200;8.674;2022-07-11T19:27:07;22.20;97.20
45323;DHT22;31382;50.200;8.674;2022-07-11T19:32:09;22.00;97.50
45323;DHT22;31382;50.200;8.674;2022-07-11T19:37:11;21.90;97.70
45323;DHT22;31382;50.200;8.674;2022-07-11T19:42:13;21.80;98.20
45323;DHT22;31382;50.200;8.674;2022-07-11T19:47:15;21.70;98.50
45323;DHT22;31382;50.200;8.674;2022-07-11T19:52:17;21.50;99.00
45323;DHT22;31382;50.200;8.674;2022-07-11T19:57:18;21.40;99.40
45323;DHT22;31382;50.200;8.674;2022-07-11T20:02:26;21.40;99.90
45323;DHT22;31382;50.200;8.674;2022-07-11T20:07:30;21.30;99.90
45323;DHT22;31382;50.200;8.674;2022-07-11T20:12:31;21.20;99.90
45323;DHT22;31382;50.200;8.674;2022-07-11T20:17:33;21.10;99.90
45323;DHT22;31382;50.200;8.674;2022-07-11T20:22:35;20.90;99.90
45323;DHT22;31382;50.200;8.674;2022-07-11T20:27:37;20.70;99.90
45323;DHT22;31382;50.200;8.674;2022-07-11T20:32:39;20.50;99.90
45323;DHT22;31382;50.200;8.674;2022-07-11T20:37:41;20.40;99.90
45323;DHT22;31382;50.200;8.674;2022-07-11T20:42:42;20.20;99.90
45323;DHT22;31382;50.200;8.674;2022-07-11T20:47:44;20.10;99.90
45323;DHT22;31382;50.200;8.674;2022-07-11T20:52:46;19.90;99.90
45323;DHT22;31382;50.200;8.674;2022-07-11T20:57:51;19.80;99.90
45323;DHT22;31382;50.200;8.674;2022-07-11T21:02:54;19.70;99.90
45323;DHT22;31382;50.200;8.674;2022-07-11T21:07:55;19.50;99.90
45323;DHT22;31382;50.200;8.674;2022-07-11T21:12:57;19.40;99.90
45323;DHT22;31382;50.200;8.674;2022-07-11T21:17:59;19.20;99.90
45323;DHT22;31382;50.200;8.674;2022-07-11T21:23:00;19.20;99.90
45323;DHT22;31382;50.200;8.674;2022-07-11T21:28:02;19.00;99.90
45323;DHT22;31382;50.200;8.674;2022-07-11T21:33:04;18.90;99.90
45323;DHT22;31382;50.200;8.674;2022-07-11T21:38:06;18.80;99.90
45323;DHT22;31382;50.200;8.674;2022-07-11T21:43:08;18.60;99.90
45323;DHT22;31382;50.200;8.674;2022-07-11T21:48:10;18.50;99.90
45323;DHT22;31382;50.200;8.674;2022-07-11T21:53:11;18.50;99.90
45323;DHT22;31382;50.200;8.674;2022-07-11T21:58:13;18.30;99.90
45323;DHT22;31382;50.200;8.674;2022-07-11T22:03:15;18.20;99.90
45323;DHT22;31382;50.200;8.674;2022-07-11T22:08:16;18.20;99.90
45323;DHT22;31382;50.200;8.674;2022-07-11T22:13:18;18.10;99.90
45323;DHT22;31382;50.200;8.674;2022-07-11T22:18:20;18.00;99.90
45323;DHT22;31382;50.200;8.674;2022-07-11T22:23:22;17.90;99.90
45323;DHT22;31382;50.200;8.674;2022-07-11T22:28:24;17.80;99.90
45323;DHT22;31382;50.200;8.674;2022-07-11T22:33:26;17.70;99.90
45323;DHT22;31382;50.200;8.674;2022-07-11T22:38:27;17.70;99.90
45323;DHT22;31382;50.200;8.674;2022-07-11T22:43:29;17.60;99.90
45323;DHT22;31382;50.200;8.674;2022-07-11T22:48:31;17.50;99.90
45323;DHT22;31382;50.200;8.674;2022-07-11T22:53:32;17.40;99.90
45323;DHT22;31382;50.200;8.674;2022-07-11T22:58:34;17.30;99.90
45323;DHT22;31382;50.200;8.674;2022-07-11T23:03:35;17.30;99.90
45323;DHT22;31382;50.200;8.674;2022-07-11T23:08:37;17.10;99.90
45323;DHT22;31382;50.200;8.674;2022-07-11T23:13:39;17.00;99.90
45323;DHT22;31382;50.200;8.674;2022-07-11T23:18:41;16.80;99.90
45323;DHT22;31382;50.200;8.674;2022-07-11T23:23:42;16.80;99.90
45323;DHT22;31382;50.200;8.674;2022-07-11T23:28:44;16.80;99.90
45323;DHT22;31382;50.200;8.674;2022-07-11T23:33:46;16.70;99.90
45323;DHT22;31382;50.200;8.674;2022-07-11T23:38:47;16.70;99.90
45323;DHT22;31382;50.200;8.674;2022-07-11T23:43:49;16.60;99.90
45323;DHT22;31382;50.200;8.674;2022-07-11T23:48:51;16.50;99.90
45323;DHT22;31382;50.200;8.674;2022-07-11T23:53:52;16.50;99.90
45323;DHT22;31382;50.200;8.674;2022-07-11T23:58:54;16.40;99.90
